Time;durP1;ratioP1;P1;durP2;ratioP2;P2;SDS_P1;SDS_P2;PMS_P1;PMS_P2;Temp;Humidity;BMP_temperature;BMP_pressure;BME280_temperature;BME280_humidity;BME280_pressure;Samples;Min_cycle;Max_cycle;Signal;HPM_P1;HPM_P2
2022/12/12 00:00:25;;;;;;;7.28;3.47;;;;;;;;;;5038318;28;20041;-80
2022/12/12 00:02:50;;;;;;;10.48;4.80;;;;;;;;;;5038566;28;20061;-81
2022/12/12 00:05:17;;;;;;;4.00;1.80;;;;;;;;;;5025964;28;20621;-80
2022/12/12 00:07:42;;;;;;;9.98;2.88;;;;;;;;;;5024820;28;20056;-82
2022/12/12 00:10:08;;;;;;;10.75;2.28;;;;;;;;;;5026818;28;20118;-80
2022/12/12 00:12:33;;;;;;;8.63;3.15;;;;;;;;;;5026736;28;20072;-80
2022/12/12 00:14:59;;;;;;;6.38;2.30;;;;;;;;;;5026285;28;20435;-80
2022/12/12 00:17:24;;;;;;;7.22;3.00;;;;;;;;;;5025404;28;20041;-80
2022/12/12 00:19:49;;;;;;;6.22;2.95;;;;;;;;;;5025058;28;20075;-81
2022/12/12 00:22:15;;;;;;;4.97;3.63;;;;;;;;;;5010460;28;20045;-80
2022/12/12 00:24:40;;;;;;;3.33;1.73;;;;;;;;;;5004649;28;20725;-80
2022/12/12 00:27:06;;;;;;;3.15;2.40;;;;;;;;;;5005293;28;20046;-81
2022/12/12 00:29:32;;;;;;;7.60;3.28;;;;;;;;;;5017487;28;20121;-81
2022/12/12 00:31:57;;;;;;;3.80;2.53;;;;;;;;;;5041435;28;20720;-80
2022/12/12 00:34:22;;;;;;;4.05;2.20;;;;;;;;;;5042620;28;20029;-80
2022/12/12 00:36:48;;;;;;;6.18;2.33;;;;;;;;;;5026453;28;20048;-80
2022/12/12 00:39:13;;;;;;;5.90;2.92;;;;;;;;;;5026325;28;20100;-80
2022/12/12 00:41:38;;;;;;;6.75;2.80;;;;;;;;;;5038808;28;20037;-80
2022/12/12 00:44:05;;;;;;;7.25;3.15;;;;;;;;;;5018062;28;20040;-81
2022/12/12 00:46:30;;;;;;;5.07;2.85;;;;;;;;;;5040288;28;20025;-81
2022/12/12 00:48:57;;;;;;;3.30;2.15;;;;;;;;;;5034840;28;20030;-80
2022/12/12 00:51:24;;;;;;;4.35;2.95;;;;;;;;;;5026103;28;20116;-81
2022/12/12 00:53:50;;;;;;;3.30;2.22;;;;;;;;;;5032278;28;20619;-81
2022/12/12 00:56:18;;;;;;;3.50;2.20;;;;;;;;;;5030538;28;20045;-81
2022/12/12 00:58:44;;;;;;;17.33;4.50;;;;;;;;;;5021299;28;20060;-81
2022/12/12 01:01:12;;;;;;;6.28;2.38;;;;;;;;;;5006812;28;20065;-81
2022/12/12 01:03:39;;;;;;;6.97;2.08;;;;;;;;;;5006885;28;20034;-81
2022/12/12 01:06:05;;;;;;;12.30;4.40;;;;;;;;;;5005265;28;20041;-81
2022/12/12 01:08:31;;;;;;;6.00;2.58;;;;;;;;;;5012598;28;20507;-81
2022/12/12 01:10:57;;;;;;;5.18;2.53;;;;;;;;;;5004390;28;20038;-80
2022/12/12 01:13:22;;;;;;;2.55;1.08;;;;;;;;;;5006839;28;20419;-81
2022/12/12 01:15:47;;;;;;;4.18;2.65;;;;;;;;;;5005244;28;20544;-81
2022/12/12 01:18:13;;;;;;;4.93;2.70;;;;;;;;;;5004103;28;20045;-81
2022/12/12 01:20:40;;;;;;;3.88;3.40;;;;;;;;;;5004889;28;20093;-80
2022/12/12 01:23:05;;;;;;;8.25;2.25;;;;;;;;;;5005500;28;20046;-81
2022/12/12 01:25:30;;;;;;;4.13;3.25;;;;;;;;;;5005355;28;20026;-80
2022/12/12 01:27:56;;;;;;;6.90;3.08;;;;;;;;;;5006850;28;20033;-81
2022/12/12 01:30:22;;;;;;;5.38;2.42;;;;;;;;;;5006069;28;20048;-81
2022/12/12 01:32:48;;;;;;;6.70;3.10;;;;;;;;;;5020446;28;20060;-81
2022/12/12 01:35:13;;;;;;;6.40;3.13;;;;;;;;;;5006377;28;20720;-80
2022/12/12 01:37:39;;;;;;;8.02;3.70;;;;;;;;;;5004066;28;20030;-81
2022/12/12 01:40:07;;;;;;;6.25;2.67;;;;;;;;;;5004954;28;20041;-81
2022/12/12 01:42:33;;;;;;;14.40;5.63;;;;;;;;;;5005030;28;20039;-80
2022/12/12 01:44:58;;;;;;;5.03;2.75;;;;;;;;;;5005857;28;20082;-81
2022/12/12 01:47:25;;;;;;;6.18;3.33;;;;;;;;;;5023776;28;20053;-80
2022/12/12 01:49:58;;;;;;;8.38;3.45;;;;;;;;;;5027962;28;20029;-81
2022/12/12 01:52:31;;;;;;;4.03;2.45;;;;;;;;;;5025965;28;20087;-80
2022/12/12 01:54:59;;;;;;;10.85;4.38;;;;;;;;;;5040625;28;20041;-80
2022/12/12 01:57:32;;;;;;;9.27;4.53;;;;;;;;;;5041837;28;20505;-81
2022/12/12 02:00:01;;;;;;;6.95;4.20;;;;;;;;;;5028229;28;20598;-80
2022/12/12 02:02:28;;;;;;;11.55;5.55;;;;;;;;;;5017431;28;20485;-80
2022/12/12 02:04:53;;;;;;;8.32;3.80;;;;;;;;;;5024137;28;20186;-80
2022/12/12 02:07:19;;;;;;;11.20;4.05;;;;;;;;;;5028769;28;20022;-80
2022/12/12 02:09:46;;;;;;;9.13;4.07;;;;;;;;;;5027805;28;20700;-81
2022/12/12 02:12:13;;;;;;;11.60;4.63;;;;;;;;;;5044422;28;20037;-80
2022/12/12 02:14:42;;;;;;;9.90;4.00;;;;;;;;;;5044208;28;20092;-80
2022/12/12 02:17:29;;;;;;;12.35;4.30;;;;;;;;;;5043828;28;20036;-81
2022/12/12 02:20:13;;;;;;;14.05;5.18;;;;;;;;;;5027260;28;20103;-81
2022/12/12 02:23:23;;;;;;;9.65;4.18;;;;;;;;;;5027958;28;20036;-81
2022/12/12 02:26:06;;;;;;;7.43;3.83;;;;;;;;;;5044037;28;20039;-81
2022/12/12 02:28:50;;;;;;;;;;;;;;;;;;5020345;28;20033;-80
2022/12/12 02:31:30;;;;;;;5.93;3.38;;;;;;;;;;5019574;28;20424;-81
2022/12/12 02:34:10;;;;;;;7.30;3.85;;;;;;;;;;5026408;28;20061;-80
2022/12/12 02:36:57;;;;;;;5.97;2.92;;;;;;;;;;5013368;28;20049;-81
2022/12/12 02:39:32;;;;;;;5.93;2.63;;;;;;;;;;5004963;28;20500;-81
2022/12/12 02:42:06;;;;;;;9.00;3.15;;;;;;;;;;5007520;28;20045;-81
2022/12/12 02:44:40;;;;;;;7.20;2.70;;;;;;;;;;5007622;28;20414;-81
2022/12/12 02:47:14;;;;;;;6.88;2.17;;;;;;;;;;5017267;28;20111;-80
2022/12/12 02:49:44;;;;;;;7.72;3.03;;;;;;;;;;5030450;28;20029;-81
2022/12/12 02:52:10;;;;;;;9.57;3.17;;;;;;;;;;5026791;28;20123;-81
2022/12/12 02:54:36;;;;;;;8.88;4.28;;;;;;;;;;5026579;28;20415;-80
2022/12/12 02:57:03;;;;;;;9.95;3.47;;;;;;;;;;5027177;28;20034;-80
2022/12/12 02:59:33;;;;;;;4.38;1.73;;;;;;;;;;5043439;28;20052;-81
2022/12/12 03:02:23;;;;;;;8.13;3.90;;;;;;;;;;5026624;28;20045;-81
2022/12/12 03:07:53;;;;;;;16.98;4.65;;;;;;;;;;5014489;28;20044;-81
2022/12/12 03:10:51;;;;;;;9.52;3.90;;;;;;;;;;5021031;28;20026;-81
2022/12/12 03:13:41;;;;;;;12.40;3.78;;;;;;;;;;5020544;28;20139;-81
2022/12/12 03:16:17;;;;;;;8.30;3.60;;;;;;;;;;5022598;28;20046;-81
2022/12/12 03:19:09;;;;;;;10.63;5.18;;;;;;;;;;5006872;28;20034;-81
2022/12/12 03:21:59;;;;;;;8.90;3.65;;;;;;;;;;5005798;28;20325;-81
2022/12/12 03:24:24;;;;;;;7.90;4.18;;;;;;;;;;5008210;28;20029;-81
2022/12/12 03:27:00;;;;;;;10.00;4.05;;;;;;;;;;5013541;28;20075;-80
2022/12/12 03:29:35;;;;;;;7.35;2.70;;;;;;;;;;5027532;28;20112;-81
2022/12/12 03:32:07;;;;;;;7.18;3.25;;;;;;;;;;5026852;28;20030;-81
2022/12/12 03:34:42;;;;;;;9.00;3.78;;;;;;;;;;5041794;28;20106;-80
2022/12/12 03:37:20;;;;;;;7.43;3.28;;;;;;;;;;5026793;28;20130;-81
2022/12/12 03:40:04;;;;;;;9.85;3.40;;;;;;;;;;5026375;28;20037;-81
2022/12/12 03:42:38;;;;;;;13.02;4.25;;;;;;;;;;5026923;28;20040;-80
2022/12/12 03:45:10;;;;;;;8.73;4.15;;;;;;;;;;5025497;28;20037;-81
2022/12/12 03:47:47;;;;;;;6.70;3.17;;;;;;;;;;5035172;28;20053;-80
2022/12/12 03:50:25;;;;;;;8.13;3.78;;;;;;;;;;5005958;28;20050;-80
2022/12/12 03:52:58;;;;;;;7.10;3.58;;;;;;;;;;5005484;28;20117;-81
2022/12/12 03:55:37;;;;;;;7.78;3.55;;;;;;;;;;5006062;28;20693;-81
2022/12/12 03:58:26;;;;;;;9.10;4.38;;;;;;;;;;5009232;28;20104;-80
2022/12/12 04:00:55;;;;;;;6.40;3.13;;;;;;;;;;5006021;28;20041;-80
2022/12/12 04:03:28;;;;;;;6.88;3.00;;;;;;;;;;5006526;28;20041;-80
2022/12/12 04:15:11;;;;;;;13.23;3.08;;;;;;;;;;5014232;28;20097;-80
2022/12/12 04:17:39;;;;;;;2.92;1.88;;;;;;;;;;5024605;28;20037;-80
2022/12/12 04:23:19;;;;;;;7.03;3.35;;;;;;;;;;5026451;28;20037;-81
2022/12/12 04:29:05;;;;;;;3.42;2.20;;;;;;;;;;5020811;28;20881;-80
2022/12/12 04:31:36;;;;;;;4.38;2.30;;;;;;;;;;5005464;28;20042;-80
2022/12/12 04:34:09;;;;;;;6.13;2.75;;;;;;;;;;5004811;28;20121;-81
2022/12/12 04:36:36;;;;;;;10.77;3.95;;;;;;;;;;5005606;28;20172;-81
2022/12/12 04:39:04;;;;;;;5.88;2.70;;;;;;;;;;5005529;28;20046;-81
2022/12/12 04:41:33;;;;;;;4.47;2.15;;;;;;;;;;5016956;28;20053;-81
2022/12/12 04:44:00;;;;;;;4.80;1.55;;;;;;;;;;5021579;28;20045;-81
2022/12/12 04:46:27;;;;;;;4.00;1.92;;;;;;;;;;5025408;28;20017;-81
2022/12/12 04:48:57;;;;;;;7.63;2.55;;;;;;;;;;5051202;28;20051;-80
2022/12/12 04:51:27;;;;;;;3.45;1.90;;;;;;;;;;5025989;28;20045;-80
2022/12/12 04:54:03;;;;;;;6.22;3.13;;;;;;;;;;5022827;28;20029;-81
2022/12/12 04:56:31;;;;;;;12.82;3.80;;;;;;;;;;5026492;28;20033;-81
2022/12/12 04:58:57;;;;;;;3.28;2.78;;;;;;;;;;5025135;28;20029;-80
2022/12/12 05:01:44;;;;;;;2.90;1.33;;;;;;;;;;5023757;28;20021;-81
2022/12/12 05:04:36;;;;;;;5.07;2.00;;;;;;;;;;5041236;28;20038;-81
2022/12/12 05:07:08;;;;;;;5.70;2.92;;;;;;;;;;5041058;28;20168;-81
2022/12/12 05:09:34;;;;;;;2.50;1.75;;;;;;;;;;5026067;28;20526;-80
2022/12/12 05:11:59;;;;;;;4.45;1.98;;;;;;;;;;5019462;28;20082;-81
2022/12/12 05:14:26;;;;;;;21.23;3.58;;;;;;;;;;5038987;28;20042;-81
2022/12/12 05:16:56;;;;;;;11.02;3.85;;;;;;;;;;5024817;28;20044;-80
2022/12/12 05:19:21;;;;;;;3.22;2.25;;;;;;;;;;5025837;28;20025;-81
2022/12/12 05:21:46;;;;;;;4.50;3.22;;;;;;;;;;5039752;28;20045;-81
2022/12/12 05:24:11;;;;;;;7.53;2.30;;;;;;;;;;5026293;28;20033;-81
2022/12/12 05:26:37;;;;;;;5.93;2.80;;;;;;;;;;5026047;28;20060;-81
2022/12/12 05:29:03;;;;;;;4.20;1.85;;;;;;;;;;5008365;28;20246;-80
2022/12/12 05:31:29;;;;;;;3.15;2.47;;;;;;;;;;5008088;28;20029;-80
2022/12/12 05:33:54;;;;;;;5.18;2.65;;;;;;;;;;5032925;28;20427;-76
2022/12/12 05:36:20;;;;;;;5.18;2.00;;;;;;;;;;5027053;28;20414;-80
2022/12/12 05:38:46;;;;;;;2.85;1.73;;;;;;;;;;5045064;28;20037;-79
2022/12/12 05:41:12;;;;;;;3.35;2.35;;;;;;;;;;5025017;28;20164;-79
2022/12/12 05:43:37;;;;;;;2.33;1.90;;;;;;;;;;5026873;28;20546;-79
2022/12/12 05:46:03;;;;;;;4.90;2.17;;;;;;;;;;5028472;28;20025;-79
2022/12/12 05:48:29;;;;;;;10.02;3.85;;;;;;;;;;5020715;28;20064;-80
2022/12/12 05:50:55;;;;;;;7.50;3.40;;;;;;;;;;5015857;28;20246;-78
2022/12/12 05:53:20;;;;;;;7.18;3.63;;;;;;;;;;5029119;28;20117;-76
2022/12/12 05:55:50;;;;;;;10.63;5.40;;;;;;;;;;5008653;28;20018;-79
2022/12/12 05:58:15;;;;;;;10.25;4.00;;;;;;;;;;5014608;28;20513;-81
2022/12/12 06:00:41;;;;;;;7.63;3.20;;;;;;;;;;5015096;28;20038;-81
2022/12/12 06:03:06;;;;;;;6.45;2.00;;;;;;;;;;5004835;28;20523;-82
2022/12/12 06:05:31;;;;;;;10.07;3.33;;;;;;;;;;5009463;28;20041;-82
2022/12/12 06:07:57;;;;;;;4.95;2.80;;;;;;;;;;5005468;28;20443;-81
2022/12/12 06:10:22;;;;;;;5.90;3.55;;;;;;;;;;5006984;28;20510;-81
2022/12/12 06:12:47;;;;;;;7.88;2.60;;;;;;;;;;5008688;28;20030;-82
2022/12/12 06:15:12;;;;;;;2.47;1.67;;;;;;;;;;5009047;28;20034;-81
2022/12/12 06:17:38;;;;;;;8.60;3.72;;;;;;;;;;5008537;28;20078;-81
2022/12/12 06:20:04;;;;;;;3.47;2.00;;;;;;;;;;5006479;28;20034;-82
2022/12/12 06:22:29;;;;;;;1.80;1.40;;;;;;;;;;5006992;28;20030;-81
2022/12/12 06:24:54;;;;;;;1.33;1.17;;;;;;;;;;5010218;28;20057;-82
2022/12/12 06:27:20;;;;;;;3.30;2.33;;;;;;;;;;5009134;28;20060;-81
2022/12/12 06:29:46;;;;;;;1.95;1.42;;;;;;;;;;5021901;28;20518;-83
2022/12/12 06:32:12;;;;;;;7.30;3.10;;;;;;;;;;5043618;28;20037;-83
2022/12/12 06:34:38;;;;;;;6.90;3.22;;;;;;;;;;5043150;28;20041;-79
2022/12/12 06:37:05;;;;;;;5.13;1.63;;;;;;;;;;5026122;28;20017;-83
2022/12/12 06:39:31;;;;;;;3.80;2.08;;;;;;;;;;5028628;28;20061;-84
2022/12/12 06:41:56;;;;;;;7.05;2.75;;;;;;;;;;5042582;28;20033;-83
2022/12/12 06:44:21;;;;;;;5.05;2.47;;;;;;;;;;5027196;28;20435;-83
2022/12/12 06:46:47;;;;;;;7.70;3.65;;;;;;;;;;5029137;28;20032;-82
2022/12/12 06:49:12;;;;;;;5.75;3.40;;;;;;;;;;5033027;28;20120;-83
2022/12/12 06:51:42;;;;;;;8.95;2.90;;;;;;;;;;5022382;28;20034;-83
2022/12/12 06:54:09;;;;;;;4.35;3.17;;;;;;;;;;5020361;28;20514;-83
2022/12/12 06:56:35;;;;;;;2.65;1.92;;;;;;;;;;5032470;28;20037;-83
2022/12/12 06:59:00;;;;;;;13.05;4.05;;;;;;;;;;5025842;28;20037;-83
2022/12/12 07:01:25;;;;;;;9.48;3.28;;;;;;;;;;5026486;28;20029;-83
2022/12/12 07:03:51;;;;;;;6.07;3.05;;;;;;;;;;5040678;28;20034;-82
2022/12/12 07:06:20;;;;;;;8.55;3.75;;;;;;;;;;5041358;28;20042;-83
2022/12/12 07:08:46;;;;;;;8.20;4.30;;;;;;;;;;5025046;28;20418;-82
2022/12/12 07:11:18;;;;;;;20.33;4.28;;;;;;;;;;5027149;28;20767;-82
2022/12/12 07:13:44;;;;;;;5.95;2.25;;;;;;;;;;5025050;28;20559;-82
2022/12/12 07:16:09;;;;;;;7.38;3.85;;;;;;;;;;5025169;28;20606;-82
2022/12/12 07:18:35;;;;;;;7.78;3.13;;;;;;;;;;5007880;28;20194;-83
2022/12/12 07:21:05;;;;;;;13.70;4.10;;;;;;;;;;5007332;28;20542;-83
2022/12/12 07:23:31;;;;;;;9.02;3.20;;;;;;;;;;5005476;28;20045;-82
2022/12/12 07:25:56;;;;;;;8.82;4.13;;;;;;;;;;5021755;28;20026;-82
2022/12/12 07:28:21;;;;;;;13.07;3.85;;;;;;;;;;5017917;28;20067;-82
2022/12/12 07:30:48;;;;;;;8.63;3.75;;;;;;;;;;5026344;28;20537;-82
2022/12/12 07:33:15;;;;;;;11.05;4.30;;;;;;;;;;5009595;28;20048;-82
2022/12/12 07:35:42;;;;;;;9.10;3.88;;;;;;;;;;5021565;28;20037;-83
2022/12/12 07:38:08;;;;;;;11.55;4.50;;;;;;;;;;5015946;28;20542;-83
2022/12/12 07:40:34;;;;;;;8.48;4.15;;;;;;;;;;5025642;28;20075;-83
2022/12/12 07:43:00;;;;;;;6.63;3.53;;;;;;;;;;5014847;28;20021;-82
2022/12/12 07:45:25;;;;;;;9.57;3.90;;;;;;;;;;5026098;28;20063;-83
2022/12/12 07:47:51;;;;;;;11.60;4.50;;;;;;;;;;5006295;28;20042;-83
2022/12/12 07:50:17;;;;;;;8.30;3.50;;;;;;;;;;5003783;28;20041;-82
2022/12/12 07:52:42;;;;;;;7.13;3.88;;;;;;;;;;4991419;28;20029;-83
2022/12/12 07:55:09;;;;;;;11.13;3.95;;;;;;;;;;5004982;28;20886;-81
2022/12/12 07:57:35;;;;;;;9.50;4.18;;;;;;;;;;5024120;28;20056;-82
2022/12/12 08:00:01;;;;;;;5.25;2.78;;;;;;;;;;5014541;28;20579;-82
2022/12/12 08:02:26;;;;;;;7.78;3.30;;;;;;;;;;5022067;28;20060;-82
2022/12/12 08:04:51;;;;;;;9.50;4.13;;;;;;;;;;5040434;28;20029;-83
2022/12/12 08:07:17;;;;;;;4.32;2.55;;;;;;;;;;5025795;28;20087;-82
2022/12/12 08:09:42;;;;;;;12.10;4.88;;;;;;;;;;5025249;28;20128;-82
2022/12/12 08:12:07;;;;;;;8.05;4.30;;;;;;;;;;5003638;28;20030;-81
2022/12/12 08:14:33;;;;;;;13.40;5.88;;;;;;;;;;4993703;28;20476;-81
2022/12/12 08:16:58;;;;;;;11.55;5.03;;;;;;;;;;5012083;28;20046;-81
2022/12/12 08:19:24;;;;;;;16.35;4.75;;;;;;;;;;5010867;28;20454;-81
2022/12/12 08:21:49;;;;;;;14.55;4.40;;;;;;;;;;5010982;28;20045;-80
2022/12/12 08:24:15;;;;;;;5.85;3.78;;;;;;;;;;5013507;28;20036;-81
2022/12/12 08:26:41;;;;;;;9.77;3.83;;;;;;;;;;5012463;28;20030;-81
2022/12/12 08:29:07;;;;;;;18.67;5.80;;;;;;;;;;5002629;28;20141;-81
2022/12/12 08:31:34;;;;;;;7.95;3.63;;;;;;;;;;4988000;28;20105;-81
2022/12/12 08:34:00;;;;;;;11.90;4.72;;;;;;;;;;5022487;28;20033;-81
2022/12/12 08:36:31;;;;;;;11.02;4.13;;;;;;;;;;5018684;28;20442;-81
2022/12/12 08:39:00;;;;;;;5.15;2.25;;;;;;;;;;5024634;28;20056;-81
2022/12/12 08:41:26;;;;;;;7.65;3.25;;;;;;;;;;5011960;28;20034;-81
2022/12/12 08:43:51;;;;;;;7.65;3.10;;;;;;;;;;5018866;28;20041;-81
2022/12/12 08:46:18;;;;;;;14.30;5.82;;;;;;;;;;5019002;28;20107;-81
2022/12/12 08:48:44;;;;;;;11.70;3.80;;;;;;;;;;5024632;28;20037;-82
2022/12/12 08:51:09;;;;;;;11.13;4.32;;;;;;;;;;5006100;28;20077;-82
2022/12/12 08:53:34;;;;;;;14.05;5.13;;;;;;;;;;5020059;28;20033;-82
2022/12/12 08:56:00;;;;;;;9.73;4.57;;;;;;;;;;5041006;28;20853;-82
2022/12/12 08:58:25;;;;;;;14.88;5.55;;;;;;;;;;5041650;28;20029;-82
2022/12/12 09:00:51;;;;;;;12.65;3.75;;;;;;;;;;5025218;28;20030;-82
2022/12/12 09:03:17;;;;;;;5.22;3.17;;;;;;;;;;5031326;28;20041;-81
2022/12/12 09:05:45;;;;;;;10.13;5.40;;;;;;;;;;5011395;28;20030;-82
2022/12/12 09:08:12;;;;;;;11.07;4.38;;;;;;;;;;5008931;28;20537;-82
2022/12/12 09:10:37;;;;;;;5.22;3.22;;;;;;;;;;5007145;28;20037;-82
2022/12/12 09:13:04;;;;;;;16.05;6.45;;;;;;;;;;5011004;28;20095;-82
2022/12/12 09:15:32;;;;;;;11.60;3.92;;;;;;;;;;5003525;28;20400;-82
2022/12/12 09:17:58;;;;;;;7.70;3.67;;;;;;;;;;5005674;28;20048;-82
2022/12/12 09:20:23;;;;;;;13.13;3.75;;;;;;;;;;5006728;28;20042;-82
2022/12/12 09:22:49;;;;;;;9.35;4.53;;;;;;;;;;5008522;28;20048;-81
2022/12/12 09:25:14;;;;;;;9.40;4.22;;;;;;;;;;5011654;28;20028;-81
2022/12/12 09:27:39;;;;;;;5.60;2.78;;;;;;;;;;5038665;28;20510;-82
2022/12/12 09:30:05;;;;;;;11.88;3.83;;;;;;;;;;5021564;28;20036;-82
2022/12/12 09:32:30;;;;;;;6.50;3.25;;;;;;;;;;5004279;28;20038;-82
2022/12/12 09:34:56;;;;;;;12.65;4.18;;;;;;;;;;5005652;28;20502;-82
2022/12/12 09:37:21;;;;;;;6.95;4.68;;;;;;;;;;5008041;28;20017;-82
2022/12/12 09:39:46;;;;;;;7.90;2.85;;;;;;;;;;5002705;28;20045;-83
2022/12/12 09:42:30;;;;;;;5.07;3.22;;;;;;;;;;5012010;28;20056;-82
2022/12/12 09:44:59;;;;;;;10.75;4.30;;;;;;;;;;5002496;28;20507;-82
2022/12/12 09:47:54;;;;;;;11.55;3.67;;;;;;;;;;5009817;28;20045;-82
2022/12/12 09:50:35;;;;;;;8.30;3.72;;;;;;;;;;5026802;28;20064;-82
2022/12/12 09:53:10;;;;;;;7.38;2.75;;;;;;;;;;5013447;28;20036;-83
2022/12/12 09:55:58;;;;;;;8.82;3.17;;;;;;;;;;5005318;28;20112;-79
2022/12/12 09:58:48;;;;;;;12.60;4.65;;;;;;;;;;5003492;28;20510;-83
2022/12/12 10:01:29;;;;;;;11.70;4.30;;;;;;;;;;5006267;28;20049;-77
2022/12/12 10:04:10;;;;;;;12.68;5.55;;;;;;;;;;5003849;28;20057;-76
2022/12/12 10:07:18;;;;;;;10.57;4.55;;;;;;;;;;5004860;28;20072;-78
2022/12/12 10:10:37;;;;;;;10.90;4.60;;;;;;;;;;5008500;28;20136;-80
2022/12/12 10:13:05;;;;;;;9.70;3.17;;;;;;;;;;4975996;28;20337;-79
2022/12/12 10:15:35;;;;;;;12.65;4.03;;;;;;;;;;4996417;28;20038;-79
2022/12/12 10:18:06;;;;;;;6.63;3.65;;;;;;;;;;5015514;28;20041;-78
2022/12/12 10:20:39;;;;;;;12.73;4.20;;;;;;;;;;5023353;28;20113;-78
2022/12/12 10:23:06;;;;;;;5.50;2.50;;;;;;;;;;5038082;28;20033;-84
2022/12/12 10:25:58;;;;;;;16.08;3.75;;;;;;;;;;5021191;28;20021;-78
2022/12/12 10:28:26;;;;;;;6.60;4.00;;;;;;;;;;5019953;28;20521;-79
2022/12/12 10:30:54;;;;;;;12.10;5.05;;;;;;;;;;5023943;28;20546;-80
2022/12/12 10:33:29;;;;;;;11.43;4.85;;;;;;;;;;5040969;28;20045;-79
2022/12/12 10:36:05;;;;;;;9.60;3.53;;;;;;;;;;5024916;28;20107;-79
2022/12/12 10:39:02;;;;;;;14.77;6.50;;;;;;;;;;5026174;28;20555;-80
2022/12/12 10:41:40;;;;;;;14.50;5.00;;;;;;;;;;5023701;28;20038;-79
2022/12/12 10:44:23;;;;;;;6.05;3.88;;;;;;;;;;5002748;28;20042;-81
2022/12/12 10:47:08;;;;;;;12.52;4.38;;;;;;;;;;5009821;28;20102;-81
2022/12/12 10:49:34;;;;;;;14.65;5.15;;;;;;;;;;5011921;28;20129;-82
2022/12/12 10:52:04;;;;;;;19.30;3.70;;;;;;;;;;5025415;28;20442;-81
2022/12/12 10:54:43;;;;;;;14.90;5.03;;;;;;;;;;5040595;28;20530;-81
2022/12/12 10:57:34;;;;;;;19.80;6.75;;;;;;;;;;5041072;28;20399;-80
2022/12/12 11:00:16;;;;;;;13.25;4.47;;;;;;;;;;5020988;28;20097;-81
2022/12/12 11:02:43;;;;;;;10.38;5.47;;;;;;;;;;5021078;28;20064;-81
2022/12/12 11:05:26;;;;;;;18.52;5.10;;;;;;;;;;5009479;28;20664;-82
2022/12/12 11:08:06;;;;;;;6.07;3.20;;;;;;;;;;5009381;28;20049;-82
2022/12/12 11:10:36;;;;;;;12.30;4.75;;;;;;;;;;5013965;28;20107;-81
2022/12/12 11:13:13;;;;;;;16.42;5.00;;;;;;;;;;5027956;28;20119;-81
2022/12/12 11:15:50;;;;;;;5.97;3.03;;;;;;;;;;5009765;28;20041;-80
2022/12/12 11:18:19;;;;;;;5.03;3.22;;;;;;;;;;5013449;28;20696;-80
2022/12/12 11:20:47;;;;;;;8.98;4.10;;;;;;;;;;5008033;28;20037;-81
2022/12/12 11:23:19;;;;;;;13.85;5.18;;;;;;;;;;5006456;28;20042;-81
2022/12/12 11:25:44;;;;;;;16.33;5.82;;;;;;;;;;5009708;28;20029;-83
2022/12/12 11:28:20;;;;;;;8.73;4.88;;;;;;;;;;5024963;28;20553;-81
2022/12/12 11:30:51;;;;;;;11.50;3.30;;;;;;;;;;5025064;28;20045;-81
2022/12/12 11:33:20;;;;;;;9.57;3.85;;;;;;;;;;5020675;28;20042;-84
2022/12/12 11:35:54;;;;;;;24.50;8.18;;;;;;;;;;5023865;28;20068;-77
2022/12/12 11:38:26;;;;;;;6.60;3.53;;;;;;;;;;5020001;28;20042;-80
2022/12/12 11:40:58;;;;;;;17.67;6.00;;;;;;;;;;5002995;28;20074;-77
2022/12/12 11:43:26;;;;;;;10.95;4.40;;;;;;;;;;5031056;28;20064;-76
2022/12/12 11:46:01;;;;;;;23.85;7.13;;;;;;;;;;5016235;28;20554;-76
2022/12/12 11:48:51;;;;;;;10.77;4.88;;;;;;;;;;5017549;28;20099;-76
2022/12/12 11:51:29;;;;;;;17.73;5.82;;;;;;;;;;5024723;28;20388;-76
2022/12/12 11:53:55;;;;;;;16.23;6.00;;;;;;;;;;5023040;28;20041;-76
2022/12/12 11:56:27;;;;;;;8.98;4.43;;;;;;;;;;5034154;28;20032;-78
2022/12/12 11:59:21;;;;;;;11.15;4.95;;;;;;;;;;5017978;28;20033;-75
2022/12/12 12:02:24;;;;;;;13.98;5.93;;;;;;;;;;5009776;28;20100;-75
2022/12/12 12:05:11;;;;;;;11.90;4.80;;;;;;;;;;5018855;28;20068;-76
2022/12/12 12:08:10;;;;;;;7.63;4.25;;;;;;;;;;5024615;28;20025;-75
2022/12/12 12:10:48;;;;;;;11.88;4.55;;;;;;;;;;5023963;28;20071;-76
2022/12/12 12:13:35;;;;;;;15.20;5.93;;;;;;;;;;5039689;28;20021;-78
2022/12/12 12:16:18;;;;;;;7.38;4.60;;;;;;;;;;5021960;28;20096;-76
2022/12/12 12:18:49;;;;;;;15.55;4.88;;;;;;;;;;5039920;28;20041;-76
2022/12/12 12:21:26;;;;;;;10.27;4.38;;;;;;;;;;5021592;28;20041;-82
2022/12/12 12:24:12;;;;;;;18.33;5.97;;;;;;;;;;5035788;28;20372;-76
2022/12/12 12:27:10;;;;;;;14.30;5.97;;;;;;;;;;5024469;28;20033;-76
2022/12/12 12:29:55;;;;;;;9.20;4.20;;;;;;;;;;5019942;28;20099;-76
2022/12/12 12:32:42;;;;;;;17.40;4.60;;;;;;;;;;5006648;28;20057;-76
2022/12/12 12:35:23;;;;;;;15.30;5.10;;;;;;;;;;5021731;28;20129;-75
2022/12/12 12:38:36;;;;;;;14.82;5.93;;;;;;;;;;4996099;28;20141;-75
2022/12/12 12:41:46;;;;;;;11.88;5.18;;;;;;;;;;5020076;28;20052;-79
2022/12/12 12:44:38;;;;;;;14.05;5.80;;;;;;;;;;4996730;28;20057;-76
2022/12/12 12:47:09;;;;;;;11.88;5.10;;;;;;;;;;5023691;28;20033;-76
2022/12/12 12:49:43;;;;;;;11.68;4.85;;;;;;;;;;5038553;28;20033;-76
2022/12/12 12:52:16;;;;;;;10.30;4.78;;;;;;;;;;5040479;28;20029;-76
2022/12/12 12:54:46;;;;;;;14.75;5.82;;;;;;;;;;5020308;28;20091;-77
2022/12/12 12:57:29;;;;;;;11.63;5.03;;;;;;;;;;5017765;28;20032;-75
2022/12/12 12:59:58;;;;;;;9.35;3.67;;;;;;;;;;5016960;28;20049;-75
2022/12/12 13:02:46;;;;;;;9.23;3.15;;;;;;;;;;5039942;28;20061;-77
2022/12/12 13:05:26;;;;;;;16.73;5.00;;;;;;;;;;5023614;28;20056;-76
2022/12/12 13:07:55;;;;;;;10.05;3.72;;;;;;;;;;5024628;28;20124;-76
2022/12/12 13:10:27;;;;;;;18.75;5.93;;;;;;;;;;5024125;28;20097;-75
2022/12/12 13:12:58;;;;;;;8.60;3.33;;;;;;;;;;5016134;28;20430;-75
2022/12/12 13:15:28;;;;;;;9.35;5.25;;;;;;;;;;5023143;28;20080;-75
2022/12/12 13:17:56;;;;;;;15.35;5.72;;;;;;;;;;5022512;28;20041;-76
2022/12/12 13:20:24;;;;;;;12.80;5.70;;;;;;;;;;5010552;28;20045;-76
2022/12/12 13:23:11;;;;;;;13.30;5.75;;;;;;;;;;5039459;28;20059;-76
2022/12/12 13:26:01;;;;;;;13.95;6.40;;;;;;;;;;5038732;28;20112;-75
2022/12/12 13:28:42;;;;;;;14.10;5.30;;;;;;;;;;5024369;28;20037;-75
2022/12/12 13:31:36;;;;;;;15.05;5.47;;;;;;;;;;5023983;28;20049;-76
2022/12/12 13:34:07;;;;;;;12.85;4.85;;;;;;;;;;5035553;28;20771;-75
2022/12/12 13:36:37;;;;;;;13.43;4.95;;;;;;;;;;5033148;28;20055;-75
2022/12/12 13:39:05;;;;;;;19.58;5.10;;;;;;;;;;5021501;28;20120;-76
2022/12/12 13:41:57;;;;;;;14.80;5.38;;;;;;;;;;5018073;28;20034;-80
2022/12/12 13:44:49;;;;;;;15.38;6.63;;;;;;;;;;5028843;28;20041;-78
2022/12/12 13:47:20;;;;;;;11.13;5.00;;;;;;;;;;5011524;28;20434;-79
2022/12/12 13:49:45;;;;;;;12.48;5.05;;;;;;;;;;5023640;28;20025;-79
2022/12/12 13:52:23;;;;;;;12.65;5.35;;;;;;;;;;5025709;28;20021;-79
2022/12/12 13:54:50;;;;;;;8.63;4.60;;;;;;;;;;5027452;28;20030;-79
2022/12/12 13:57:28;;;;;;;15.50;5.60;;;;;;;;;;5028202;28;20115;-80
2022/12/12 13:59:56;;;;;;;13.27;5.95;;;;;;;;;;5026588;28;20554;-80
2022/12/12 14:02:32;;;;;;;13.38;5.38;;;;;;;;;;5027687;28;20041;-80
2022/12/12 14:05:22;;;;;;;15.35;5.07;;;;;;;;;;5042133;28;20514;-78
2022/12/12 14:08:10;;;;;;;9.38;4.43;;;;;;;;;;5023860;28;20443;-79
2022/12/12 14:10:40;;;;;;;7.45;3.95;;;;;;;;;;5020715;28;20045;-79
2022/12/12 14:13:20;;;;;;;14.85;5.57;;;;;;;;;;5025603;28;20036;-79
2022/12/12 14:16:07;;;;;;;7.80;4.00;;;;;;;;;;5034880;28;20115;-77
2022/12/12 14:18:52;;;;;;;11.38;5.13;;;;;;;;;;5000319;28;20049;-77
2022/12/12 14:21:20;;;;;;;11.77;5.03;;;;;;;;;;5031893;28;20038;-78
2022/12/12 14:23:47;;;;;;;14.30;5.47;;;;;;;;;;5012997;28;20319;-80
2022/12/12 14:26:31;;;;;;;13.48;5.15;;;;;;;;;;5017964;28;20095;-80
2022/12/12 14:29:15;;;;;;;7.97;4.53;;;;;;;;;;5022928;28;20060;-79
2022/12/12 14:31:49;;;;;;;15.30;5.25;;;;;;;;;;5027445;28;20053;-79
2022/12/12 14:34:45;;;;;;;14.02;5.10;;;;;;;;;;5023633;28;20040;-79
2022/12/12 14:37:27;;;;;;;13.98;5.53;;;;;;;;;;5025268;28;20104;-79
2022/12/12 14:40:03;;;;;;;10.77;4.43;;;;;;;;;;5013035;28;20612;-79
2022/12/12 14:42:41;;;;;;;11.13;4.68;;;;;;;;;;5023212;28;20034;-79
2022/12/12 14:45:48;;;;;;;12.50;5.07;;;;;;;;;;5015504;28;20029;-79
2022/12/12 14:48:13;;;;;;;20.25;6.13;;;;;;;;;;4969885;28;20038;-79
2022/12/12 14:50:42;;;;;;;13.95;5.53;;;;;;;;;;4967172;28;20069;-80
2022/12/12 14:53:20;;;;;;;13.32;4.63;;;;;;;;;;4979230;28;20128;-80
2022/12/12 14:55:49;;;;;;;12.80;5.72;;;;;;;;;;5008351;28;20664;-80
2022/12/12 14:58:17;;;;;;;15.48;5.70;;;;;;;;;;5017172;28;20029;-79
2022/12/12 15:00:49;;;;;;;10.40;4.38;;;;;;;;;;5020922;28;20057;-79
2022/12/12 15:03:15;;;;;;;16.63;5.65;;;;;;;;;;5009608;28;20045;-79
2022/12/12 15:05:40;;;;;;;14.95;5.25;;;;;;;;;;5009533;28;20682;-79
2022/12/12 15:08:18;;;;;;;16.15;5.45;;;;;;;;;;5012133;28;20080;-79
2022/12/12 15:10:43;;;;;;;13.48;4.72;;;;;;;;;;5010101;28;20033;-77
2022/12/12 15:13:19;;;;;;;17.45;5.15;;;;;;;;;;5012199;28;20052;-79
2022/12/12 15:15:48;;;;;;;17.90;5.57;;;;;;;;;;5019289;28;20506;-77
2022/12/12 15:18:17;;;;;;;10.75;5.38;;;;;;;;;;5016825;28;20062;-80
2022/12/12 15:20:42;;;;;;;15.23;6.15;;;;;;;;;;5018089;28;20038;-78
2022/12/12 15:23:18;;;;;;;7.75;4.38;;;;;;;;;;5022774;28;20041;-78
2022/12/12 15:25:52;;;;;;;13.75;5.47;;;;;;;;;;5022191;28;20499;-78